createdAt,value
2019-03-23T00:01:22.923Z,99.90
2019-03-23T00:03:53.137Z,99.90
2019-03-23T00:06:30.704Z,99.90
2019-03-23T00:08:55.249Z,99.90
2019-03-23T00:11:26.051Z,99.90
2019-03-23T00:13:56.290Z,99.90
2019-03-23T00:16:29.546Z,99.90
2019-03-23T00:18:59.851Z,99.90
2019-03-23T00:21:30.063Z,99.90
2019-03-23T00:24:00.225Z,99.90
2019-03-23T00:26:30.433Z,99.90
2019-03-23T00:29:00.594Z,99.90
2019-03-23T00:31:30.815Z,99.90
2019-03-23T00:34:00.997Z,99.90
2019-03-23T00:36:40.812Z,99.90
2019-03-23T00:39:03.455Z,99.90
2019-03-23T00:41:34.827Z,99.90
2019-03-23T00:44:07.356Z,99.90
2019-03-23T00:46:36.990Z,99.90
2019-03-23T00:49:07.179Z,99.90
2019-03-23T00:51:37.799Z,99.90
2019-03-23T00:54:07.998Z,99.90
2019-03-23T00:56:38.738Z,99.90
2019-03-23T00:59:08.926Z,99.90
2019-03-23T01:01:39.129Z,99.90
2019-03-23T01:04:09.299Z,99.90
2019-03-23T01:06:39.526Z,99.90
2019-03-23T01:09:10.165Z,99.90
2019-03-23T01:11:40.418Z,99.90
2019-03-23T01:14:10.595Z,99.90
2019-03-23T01:16:40.889Z,99.90
2019-03-23T01:19:11.077Z,99.90
2019-03-23T01:21:41.586Z,99.90
2019-03-23T01:24:16.718Z,99.90
2019-03-23T01:26:47.571Z,99.90
2019-03-23T01:29:17.739Z,99.90
2019-03-23T01:31:47.956Z,99.90
2019-03-23T01:34:18.122Z,99.90
2019-03-23T01:36:48.954Z,99.90
2019-03-23T01:39:19.145Z,99.90
2019-03-23T01:41:49.430Z,99.90
2019-03-23T01:44:19.613Z,99.90
2019-03-23T01:46:49.825Z,99.90
2019-03-23T01:49:21.696Z,99.90
2019-03-23T01:51:52.034Z,99.90
2019-03-23T01:54:22.205Z,99.90
2019-03-23T01:56:55.883Z,99.90
2019-03-23T01:59:26.104Z,99.90
2019-03-23T02:01:56.314Z,99.90
2019-03-23T02:04:26.622Z,99.90
2019-03-23T02:06:56.860Z,99.90
2019-03-23T02:09:27.067Z,99.90
2019-03-23T02:11:57.358Z,99.90
2019-03-23T02:14:27.451Z,99.90
2019-03-23T02:16:57.775Z,99.90
2019-03-23T02:19:28.086Z,99.90
2019-03-23T02:21:58.306Z,99.90
2019-03-23T02:24:28.466Z,99.90
2019-03-23T02:26:58.690Z,99.90
2019-03-23T02:29:29.065Z,99.90
2019-03-23T02:31:59.290Z,99.90
2019-03-23T02:34:29.507Z,99.90
2019-03-23T02:36:59.731Z,99.90
2019-03-23T02:39:29.895Z,99.90
2019-03-23T02:42:00.119Z,99.90
2019-03-23T02:44:30.355Z,99.90
2019-03-23T02:47:00.591Z,99.90
2019-03-23T02:49:31.035Z,99.90
2019-03-23T02:52:01.321Z,99.90
2019-03-23T02:54:32.135Z,99.90
2019-03-23T02:57:02.430Z,99.90
2019-03-23T02:59:32.647Z,99.90
2019-03-23T03:02:02.826Z,99.90
2019-03-23T03:04:33.092Z,99.90
2019-03-23T03:07:03.365Z,99.90
2019-03-23T03:09:33.641Z,99.90
2019-03-23T03:12:03.956Z,99.90
2019-03-23T03:14:34.144Z,99.90
2019-03-23T03:17:04.320Z,99.90
2019-03-23T03:19:34.560Z,99.90
2019-03-23T03:22:04.745Z,99.90
2019-03-23T03:24:35.079Z,99.90
2019-03-23T03:27:05.266Z,99.90
2019-03-23T03:29:35.608Z,99.90
2019-03-23T03:32:05.845Z,99.90
2019-03-23T03:34:36.004Z,99.90
2019-03-23T03:37:06.160Z,99.90
2019-03-23T03:39:36.416Z,99.90
2019-03-23T03:42:06.599Z,99.90
2019-03-23T03:44:36.837Z,99.90
2019-03-23T03:47:09.368Z,99.90
2019-03-23T03:49:39.724Z,99.90
2019-03-23T03:52:10.632Z,99.90
2019-03-23T03:54:43.174Z,99.90
2019-03-23T03:57:13.383Z,99.90
2019-03-23T03:59:44.118Z,99.90
2019-03-23T04:02:14.311Z,99.90
2019-03-23T04:04:44.534Z,99.90
2019-03-23T04:07:14.723Z,99.90
2019-03-23T04:09:45.006Z,99.90
2019-03-23T04:12:15.239Z,99.90
2019-03-23T04:14:45.539Z,99.90
2019-03-23T04:17:15.714Z,99.90
2019-03-23T04:19:48.496Z,99.90
2019-03-23T04:22:19.006Z,99.90
2019-03-23T04:24:49.533Z,99.90
2019-03-23T04:27:19.714Z,99.90
2019-03-23T04:29:49.957Z,99.90
2019-03-23T04:32:20.112Z,99.90
2019-03-23T04:34:50.343Z,99.90
2019-03-23T04:37:20.503Z,99.90
2019-03-23T04:39:50.695Z,99.90
2019-03-23T04:42:20.927Z,99.90
2019-03-23T04:44:51.252Z,99.90
2019-03-23T04:47:21.691Z,99.90
2019-03-23T04:49:51.949Z,99.90
2019-03-23T04:52:25.158Z,99.90
2019-03-23T04:54:55.393Z,99.90
2019-03-23T04:57:25.566Z,99.90
2019-03-23T04:59:55.788Z,99.90
2019-03-23T05:02:25.963Z,99.90
2019-03-23T05:04:56.228Z,99.90
2019-03-23T05:07:26.495Z,99.90
2019-03-23T05:09:57.198Z,99.90
2019-03-23T05:12:27.572Z,99.90
2019-03-23T05:14:57.812Z,99.90
2019-03-23T05:17:27.988Z,99.90
2019-03-23T05:19:58.224Z,99.90
2019-03-23T05:22:28.407Z,99.90
2019-03-23T05:24:58.623Z,99.90
2019-03-23T05:27:28.796Z,99.90
2019-03-23T05:29:59.009Z,99.90
2019-03-23T05:32:29.826Z,99.90
2019-03-23T05:35:00.045Z,99.90
2019-03-23T05:37:30.219Z,99.90
2019-03-23T05:40:00.476Z,99.90
2019-03-23T05:42:30.647Z,99.90
2019-03-23T05:45:01.563Z,99.90
2019-03-23T05:47:31.734Z,99.90
2019-03-23T05:50:01.961Z,99.90
2019-03-23T05:52:32.199Z,99.90
2019-03-23T05:55:02.505Z,91.80
2019-03-23T05:57:32.670Z,90.20
2019-03-23T06:00:03.170Z,90.90
2019-03-23T06:02:33.355Z,89.30
2019-03-23T06:05:03.581Z,82.40
2019-03-23T06:07:33.743Z,70.50
2019-03-23T06:10:04.427Z,69.60
2019-03-23T06:12:34.664Z,58.70
2019-03-23T06:15:05.071Z,54.00
2019-03-23T06:17:35.269Z,50.60
2019-03-23T06:20:05.716Z,50.80
2019-03-23T06:22:35.963Z,48.40
2019-03-23T06:25:06.899Z,50.60
2019-03-23T06:27:37.775Z,49.50
2019-03-23T06:30:08.963Z,47.30
2019-03-23T06:32:39.150Z,44.40
2019-03-23T06:35:09.614Z,41.40
2019-03-23T06:37:39.781Z,42.30
2019-03-23T06:40:10.608Z,41.00
2019-03-23T06:42:40.905Z,39.10
2019-03-23T06:45:11.744Z,38.20
2019-03-23T06:47:41.914Z,39.00
2019-03-23T06:50:13.230Z,38.40
2019-03-23T06:52:43.479Z,34.20
2019-03-23T06:55:16.994Z,33.80
2019-03-23T06:57:47.170Z,31.00
2019-03-23T07:00:18.038Z,29.60
2019-03-23T07:02:48.223Z,29.10
2019-03-23T07:05:18.519Z,28.40
2019-03-23T07:07:48.688Z,29.20
2019-03-23T07:10:18.848Z,28.50
2019-03-23T07:12:49.069Z,27.60
2019-03-23T07:15:20.474Z,25.40
2019-03-23T07:17:50.969Z,25.80
2019-03-23T07:20:21.129Z,23.90
2019-03-23T07:22:51.919Z,25.10
2019-03-23T07:25:22.194Z,25.70
2019-03-23T07:27:52.439Z,23.90
2019-03-23T07:30:22.631Z,23.30
2019-03-23T07:32:52.853Z,23.50
2019-03-23T07:35:23.106Z,23.70
2019-03-23T07:37:53.362Z,22.10
2019-03-23T07:40:23.570Z,21.60
2019-03-23T07:42:53.793Z,20.90
2019-03-23T07:45:23.984Z,21.60
2019-03-23T07:47:54.204Z,21.10
2019-03-23T07:50:24.376Z,20.70
2019-03-23T07:52:54.643Z,19.90
2019-03-23T07:55:24.826Z,18.60
2019-03-23T07:57:55.070Z,18.40
2019-03-23T08:00:25.259Z,19.90
2019-03-23T08:02:55.476Z,19.80
2019-03-23T08:05:26.122Z,19.50
2019-03-23T08:07:59.448Z,20.10
2019-03-23T08:10:31.867Z,18.20
2019-03-23T08:13:02.196Z,16.50
2019-03-23T08:15:32.575Z,16.00
2019-03-23T08:18:03.239Z,15.70
2019-03-23T08:20:33.451Z,16.50
2019-03-23T08:23:03.799Z,16.70
2019-03-23T08:25:33.983Z,18.50
2019-03-23T08:28:04.209Z,18.30
2019-03-23T08:30:34.459Z,18.20
2019-03-23T08:33:04.698Z,18.20
2019-03-23T08:35:34.907Z,17.60
2019-03-23T08:38:05.138Z,17.30
2019-03-23T08:40:35.890Z,17.00
2019-03-23T08:43:06.516Z,17.30
2019-03-23T08:45:37.353Z,16.80
2019-03-23T08:48:07.606Z,16.40
2019-03-23T08:50:37.928Z,16.80
2019-03-23T08:53:08.566Z,16.70
2019-03-23T08:55:38.794Z,17.40
2019-03-23T08:58:09.000Z,17.00
2019-03-23T09:00:39.179Z,18.20
2019-03-23T09:03:12.530Z,18.50
2019-03-23T09:05:42.731Z,18.40
2019-03-23T09:08:12.970Z,18.00
2019-03-23T09:10:43.222Z,18.10
2019-03-23T09:13:13.611Z,18.50
2019-03-23T09:15:43.834Z,17.50
2019-03-23T09:18:14.322Z,16.90
2019-03-23T09:20:44.565Z,17.30
2019-03-23T09:23:17.797Z,18.10
2019-03-23T09:25:48.008Z,19.30
2019-03-23T09:28:18.274Z,21.00
2019-03-23T09:30:48.476Z,22.60
2019-03-23T09:33:21.643Z,23.90
2019-03-23T09:35:51.932Z,25.80
2019-03-23T09:38:22.165Z,29.10
2019-03-23T09:40:52.356Z,31.30
2019-03-23T09:43:22.634Z,35.00
2019-03-23T09:45:52.858Z,39.00
2019-03-23T09:48:23.234Z,40.60
2019-03-23T09:50:53.472Z,40.80
2019-03-23T09:53:23.824Z,41.70
2019-03-23T09:56:01.333Z,41.20
2019-03-23T09:58:31.889Z,41.90
2019-03-23T10:01:02.099Z,42.50
2019-03-23T10:03:32.343Z,43.50
2019-03-23T10:06:02.530Z,44.30
2019-03-23T10:08:32.846Z,43.30
2019-03-23T10:11:03.087Z,44.00
2019-03-23T10:13:33.419Z,44.30
2019-03-23T10:16:03.683Z,42.70
2019-03-23T10:18:33.921Z,43.00
2019-03-23T10:21:05.358Z,45.60
2019-03-23T10:23:35.702Z,44.30
2019-03-23T10:26:05.932Z,42.80
2019-03-23T10:28:36.216Z,42.90
2019-03-23T10:31:06.434Z,43.30
2019-03-23T10:33:36.678Z,44.60
2019-03-23T10:36:06.893Z,44.20
2019-03-23T10:38:37.186Z,44.70
2019-03-23T10:41:07.685Z,44.00
2019-03-23T10:43:39.071Z,44.40
2019-03-23T10:46:11.328Z,45.60
2019-03-23T10:48:42.173Z,42.80
2019-03-23T10:51:12.374Z,44.60
2019-03-23T10:53:42.662Z,45.10
2019-03-23T10:56:12.899Z,44.00
2019-03-23T10:58:43.141Z,45.30
2019-03-23T11:01:13.398Z,46.60
2019-03-23T11:03:43.677Z,43.10
2019-03-23T11:06:13.937Z,43.50
2019-03-23T11:08:44.163Z,43.80
2019-03-23T11:11:14.428Z,42.60
2019-03-23T11:13:44.657Z,41.60
2019-03-23T11:16:15.255Z,42.80
2019-03-23T11:18:45.493Z,43.00
2019-03-23T11:21:15.718Z,43.50
2019-03-23T11:23:45.937Z,43.60
2019-03-23T11:26:16.307Z,42.60
2019-03-23T11:28:46.516Z,42.80
2019-03-23T11:31:16.758Z,42.10
2019-03-23T11:33:46.950Z,40.40
2019-03-23T11:36:17.177Z,41.60
2019-03-23T11:38:47.399Z,39.70
2019-03-23T11:41:17.607Z,37.20
2019-03-23T11:43:47.881Z,38.70
2019-03-23T11:46:18.117Z,37.90
2019-03-23T11:48:48.310Z,38.30
2019-03-23T11:51:18.510Z,37.70
2019-03-23T11:53:48.714Z,37.00
2019-03-23T11:56:18.926Z,36.30
2019-03-23T11:58:49.501Z,35.10
2019-03-23T12:01:19.719Z,36.70
2019-03-23T12:03:49.949Z,36.50
2019-03-23T12:06:20.222Z,35.80
2019-03-23T12:08:50.418Z,37.30
2019-03-23T12:11:20.749Z,36.80
2019-03-23T12:13:50.929Z,34.70
2019-03-23T12:16:21.234Z,34.70
2019-03-23T12:18:51.424Z,35.20
2019-03-23T12:21:21.671Z,35.60
2019-03-23T12:23:51.876Z,35.30
2019-03-23T12:26:22.621Z,33.30
2019-03-23T12:28:52.783Z,33.40
2019-03-23T12:31:23.025Z,34.20
2019-03-23T12:33:53.350Z,35.20
2019-03-23T12:36:23.590Z,33.80
2019-03-23T12:38:53.811Z,35.00
2019-03-23T12:41:24.051Z,34.60
2019-03-23T12:43:54.247Z,33.10
2019-03-23T12:46:24.619Z,33.80
2019-03-23T12:48:54.904Z,32.80
2019-03-23T12:51:25.177Z,32.00
2019-03-23T12:53:55.441Z,33.60
2019-03-23T12:56:25.695Z,31.70
2019-03-23T12:58:55.918Z,30.90
2019-03-23T13:01:26.170Z,30.50
2019-03-23T13:03:56.364Z,31.50
2019-03-23T13:06:27.148Z,30.60
2019-03-23T13:08:57.533Z,31.20
2019-03-23T13:11:34.882Z,32.10
2019-03-23T13:13:59.651Z,31.10
2019-03-23T13:16:29.918Z,31.40
2019-03-23T13:19:00.117Z,31.90
2019-03-23T13:21:30.336Z,32.50
2019-03-23T13:24:00.503Z,30.90
2019-03-23T13:26:30.743Z,30.90
2019-03-23T13:29:00.971Z,31.10
2019-03-23T13:31:31.299Z,30.90
2019-03-23T13:34:01.470Z,31.10
2019-03-23T13:36:32.158Z,31.90
2019-03-23T13:39:05.506Z,32.10
2019-03-23T13:41:44.607Z,31.70
2019-03-23T13:44:07.566Z,31.10
2019-03-23T13:46:37.813Z,31.70
2019-03-23T13:49:08.044Z,34.20
2019-03-23T13:51:38.428Z,32.70
2019-03-23T13:54:08.699Z,31.80
2019-03-23T13:56:38.977Z,30.90
2019-03-23T13:59:09.171Z,30.80
2019-03-23T14:01:39.531Z,31.50
2019-03-23T14:04:09.818Z,31.60
2019-03-23T14:06:40.194Z,31.20
2019-03-23T14:09:10.419Z,31.20
2019-03-23T14:11:40.644Z,31.70
2019-03-23T14:14:10.883Z,32.70
2019-03-23T14:16:41.161Z,32.10
2019-03-23T14:19:11.402Z,31.50
2019-03-23T14:21:43.774Z,32.20
2019-03-23T14:24:14.049Z,32.10
2019-03-23T14:26:44.726Z,30.90
2019-03-23T14:29:14.918Z,31.30
2019-03-23T14:31:45.144Z,32.90
2019-03-23T14:34:15.414Z,32.10
2019-03-23T14:36:45.647Z,31.50
2019-03-23T14:39:15.937Z,30.90
2019-03-23T14:41:46.411Z,31.40
2019-03-23T14:44:16.607Z,31.70
2019-03-23T14:46:46.987Z,32.10
2019-03-23T14:49:17.315Z,32.00
2019-03-23T14:51:47.560Z,34.30
2019-03-23T14:54:17.928Z,32.10
2019-03-23T14:56:48.216Z,32.30
2019-03-23T14:59:18.430Z,32.40
2019-03-23T15:01:48.756Z,32.90
2019-03-23T15:04:19.096Z,32.50
2019-03-23T15:06:49.535Z,32.50
2019-03-23T15:09:19.766Z,33.30
2019-03-23T15:11:50.064Z,33.20
2019-03-23T15:14:20.503Z,32.40
2019-03-23T15:16:50.838Z,32.10
2019-03-23T15:19:21.031Z,32.60
2019-03-23T15:21:51.250Z,33.20
2019-03-23T15:24:21.507Z,33.00
2019-03-23T15:26:51.829Z,32.60
2019-03-23T15:29:22.095Z,34.00
2019-03-23T15:31:52.282Z,34.10
2019-03-23T15:34:22.504Z,33.50
2019-03-23T15:36:52.736Z,33.50
2019-03-23T15:39:22.949Z,34.00
2019-03-23T15:41:53.126Z,34.00
2019-03-23T15:44:23.374Z,34.40
2019-03-23T15:46:53.580Z,34.90
2019-03-23T15:49:23.819Z,35.30
2019-03-23T15:51:54.055Z,35.20
2019-03-23T15:54:27.103Z,34.70
2019-03-23T15:56:57.275Z,35.30
2019-03-23T15:59:27.533Z,35.70
2019-03-23T16:01:57.731Z,35.90
2019-03-23T16:04:28.018Z,36.40
2019-03-23T16:06:58.248Z,36.60
2019-03-23T16:09:28.575Z,36.90
2019-03-23T16:11:58.850Z,36.50
2019-03-23T16:14:29.057Z,37.10
2019-03-23T16:16:59.364Z,36.90
2019-03-23T16:19:29.617Z,37.80
2019-03-23T16:21:59.919Z,37.90
2019-03-23T16:24:30.314Z,38.50
2019-03-23T16:27:00.561Z,38.40
2019-03-23T16:29:31.425Z,38.50
2019-03-23T16:32:01.797Z,38.80
2019-03-23T16:34:32.162Z,38.60
2019-03-23T16:37:02.555Z,39.00
2019-03-23T16:39:32.821Z,39.30
2019-03-23T16:42:05.342Z,40.50
2019-03-23T16:44:35.561Z,40.50
2019-03-23T16:47:05.801Z,40.60
2019-03-23T16:49:36.022Z,40.70
2019-03-23T16:52:06.327Z,41.40
2019-03-23T16:54:36.609Z,41.90
2019-03-23T16:57:06.808Z,42.70
2019-03-23T16:59:37.081Z,42.80
2019-03-23T17:02:07.289Z,43.40
2019-03-23T17:04:37.663Z,43.70
2019-03-23T17:07:08.022Z,44.10
2019-03-23T17:09:38.406Z,44.60
2019-03-23T17:12:08.782Z,45.20
2019-03-23T17:14:39.502Z,45.70
2019-03-23T17:17:09.773Z,45.70
2019-03-23T17:19:40.097Z,46.30
2019-03-23T17:22:10.478Z,46.70
2019-03-23T17:24:40.752Z,46.90
2019-03-23T17:27:11.032Z,47.20
2019-03-23T17:29:41.327Z,47.40
2019-03-23T17:32:11.515Z,47.80
2019-03-23T17:34:41.838Z,47.80
2019-03-23T17:37:12.095Z,48.00
2019-03-23T17:39:42.743Z,48.70
2019-03-23T17:42:13.650Z,48.30
2019-03-23T17:44:46.075Z,48.20
2019-03-23T17:47:15.745Z,47.80
2019-03-23T17:49:46.097Z,47.20
2019-03-23T17:52:16.369Z,46.90
2019-03-23T17:54:46.729Z,47.10
2019-03-23T17:57:17.000Z,47.00
2019-03-23T17:59:47.211Z,47.30
2019-03-23T18:02:17.481Z,47.40
2019-03-23T18:04:50.833Z,48.40
2019-03-23T18:07:21.388Z,49.10
2019-03-23T18:09:51.641Z,50.30
2019-03-23T18:12:21.886Z,50.90
2019-03-23T18:14:52.261Z,52.00
2019-03-23T18:17:22.776Z,52.80
2019-03-23T18:19:53.149Z,53.30
2019-03-23T18:22:23.400Z,54.00
2019-03-23T18:24:53.682Z,54.70
2019-03-23T18:27:23.887Z,55.40
2019-03-23T18:29:54.184Z,56.30
2019-03-23T18:32:25.065Z,57.10
2019-03-23T18:34:55.307Z,57.50
2019-03-23T18:37:25.670Z,59.00
2019-03-23T18:39:58.266Z,58.50
2019-03-23T18:42:28.489Z,58.20
2019-03-23T18:44:58.709Z,57.90
2019-03-23T18:47:29.119Z,57.90
2019-03-23T18:49:59.555Z,58.30
2019-03-23T18:52:30.260Z,57.90
2019-03-23T18:55:00.555Z,57.40
2019-03-23T18:57:30.836Z,57.20
2019-03-23T19:00:01.391Z,56.60
2019-03-23T19:02:33.095Z,57.10
2019-03-23T19:05:04.900Z,57.00
2019-03-23T19:07:35.157Z,56.00
2019-03-23T19:10:05.566Z,55.80
2019-03-23T19:12:36.316Z,55.40
2019-03-23T19:15:07.486Z,55.10
2019-03-23T19:17:37.739Z,55.10
2019-03-23T19:20:08.467Z,54.50
2019-03-23T19:22:38.731Z,54.10
2019-03-23T19:25:16.071Z,53.90
2019-03-23T19:27:41.422Z,53.70
2019-03-23T19:30:13.387Z,53.70
2019-03-23T19:32:43.903Z,53.10
2019-03-23T19:35:14.315Z,54.20
2019-03-23T19:37:44.724Z,54.70
2019-03-23T19:40:17.550Z,57.00
2019-03-23T19:42:47.785Z,58.30
2019-03-23T19:45:17.999Z,61.20
2019-03-23T19:47:48.256Z,67.60
2019-03-23T19:50:18.774Z,74.50
2019-03-23T19:52:57.119Z,78.80
2019-03-23T19:55:34.745Z,81.20
2019-03-23T19:58:14.702Z,85.10
2019-03-23T20:00:52.039Z,89.20
2019-03-23T20:03:27.670Z,91.70
2019-03-23T20:06:06.112Z,92.40
2019-03-23T20:08:52.832Z,90.10
2019-03-23T20:11:37.317Z,89.00
2019-03-23T20:14:25.166Z,76.60
2019-03-23T20:17:15.760Z,74.20
2019-03-23T20:20:04.813Z,75.00
2019-03-23T20:22:47.670Z,76.80
2019-03-23T20:25:40.084Z,80.20
2019-03-23T20:28:31.206Z,82.80
2019-03-23T20:31:23.145Z,86.30
2019-03-23T20:34:13.308Z,88.80
2019-03-23T20:36:59.783Z,90.60
2019-03-23T20:39:37.210Z,78.20
2019-03-23T20:42:07.526Z,75.40
2019-03-23T20:44:37.736Z,76.00
2019-03-23T20:47:08.103Z,75.10
2019-03-23T20:49:38.482Z,76.00
2019-03-23T20:52:08.715Z,76.70
2019-03-23T20:54:39.058Z,77.70
2019-03-23T20:57:10.008Z,79.00
2019-03-23T20:59:40.338Z,81.40
2019-03-23T21:02:10.563Z,82.10
2019-03-23T21:04:40.850Z,83.20
2019-03-23T21:07:11.153Z,84.90
2019-03-23T21:09:41.429Z,85.60
2019-03-23T21:12:12.374Z,87.60
2019-03-23T21:14:43.204Z,88.70
2019-03-23T21:17:13.562Z,90.10
2019-03-23T21:19:44.250Z,90.60
2019-03-23T21:22:14.533Z,91.20
2019-03-23T21:24:44.797Z,91.80
2019-03-23T21:27:15.279Z,92.20
2019-03-23T21:29:45.535Z,92.70
2019-03-23T21:32:15.772Z,93.10
2019-03-23T21:34:45.975Z,93.60
2019-03-23T21:37:16.762Z,94.80
2019-03-23T21:39:46.938Z,95.30
2019-03-23T21:42:17.182Z,95.80
2019-03-23T21:44:47.500Z,96.20
2019-03-23T21:47:17.845Z,96.80
2019-03-23T21:49:48.051Z,97.30
2019-03-23T21:52:18.331Z,97.70
2019-03-23T21:54:48.665Z,98.40
2019-03-23T21:57:19.663Z,98.90
2019-03-23T21:59:50.122Z,99.10
2019-03-23T22:02:20.372Z,99.90
2019-03-23T22:04:50.643Z,99.90
2019-03-23T22:07:20.892Z,99.90
2019-03-23T22:09:51.212Z,99.90
2019-03-23T22:12:21.414Z,99.90
2019-03-23T22:14:51.831Z,99.90
2019-03-23T22:17:22.132Z,99.90
2019-03-23T22:19:52.416Z,99.90
2019-03-23T22:22:22.690Z,99.90
2019-03-23T22:24:52.983Z,99.90
2019-03-23T22:27:23.389Z,99.90
2019-03-23T22:29:55.299Z,99.90
2019-03-23T22:32:25.565Z,99.90
2019-03-23T22:34:55.862Z,99.90
2019-03-23T22:37:26.122Z,99.90
2019-03-23T22:39:56.410Z,99.90
2019-03-23T22:42:26.588Z,99.90
2019-03-23T22:44:56.933Z,99.90
2019-03-23T22:47:27.139Z,99.90
2019-03-23T22:49:57.346Z,99.90
2019-03-23T22:52:27.725Z,99.90
2019-03-23T22:54:58.042Z,99.90
2019-03-23T22:57:28.470Z,99.90
2019-03-23T22:59:58.702Z,99.90
2019-03-23T23:02:29.209Z,99.90
2019-03-23T23:04:59.981Z,99.90
2019-03-23T23:07:30.142Z,99.90
2019-03-23T23:10:00.431Z,99.90
2019-03-23T23:12:30.663Z,99.90
2019-03-23T23:15:04.827Z,99.90
2019-03-23T23:17:33.334Z,99.90
2019-03-23T23:20:04.136Z,99.90
2019-03-23T23:22:34.353Z,99.90
2019-03-23T23:25:05.175Z,99.90
2019-03-23T23:27:35.541Z,99.90
2019-03-23T23:30:08.852Z,99.90
2019-03-23T23:32:39.376Z,99.90
2019-03-23T23:35:10.542Z,99.90
2019-03-23T23:37:41.762Z,99.90
2019-03-23T23:40:12.633Z,99.90
2019-03-23T23:42:43.434Z,99.90
2019-03-23T23:45:16.096Z,99.90
2019-03-23T23:47:46.405Z,99.90
2019-03-23T23:50:17.186Z,99.90
2019-03-23T23:52:47.385Z,99.90
2019-03-23T23:55:17.622Z,99.90
2019-03-23T23:57:47.869Z,99.90
